createdAt,value
2017-10-25T00:02:01.612Z,95149.54
2017-10-25T00:04:29.337Z,95146.90
2017-10-25T00:06:57.041Z,95139.25
2017-10-25T00:09:24.789Z,95133.80
2017-10-25T00:11:52.537Z,95137.42
2017-10-25T00:14:20.317Z,95142.09
2017-10-25T00:16:48.055Z,95140.94
2017-10-25T00:19:15.757Z,95146.91
2017-10-25T00:21:43.657Z,95140.30
2017-10-25T00:24:11.471Z,95145.37
2017-10-25T00:26:39.226Z,95144.64
2017-10-25T00:29:07.038Z,95140.33
2017-10-25T00:31:34.743Z,95143.38
2017-10-25T00:34:02.500Z,95143.38
2017-10-25T00:36:30.285Z,95147.16
2017-10-25T00:38:58.051Z,95155.91
2017-10-25T00:41:25.877Z,95153.20
2017-10-25T00:43:53.894Z,95156.81
2017-10-25T00:46:21.660Z,95160.19
2017-10-25T00:48:49.321Z,95154.80
2017-10-25T00:51:17.062Z,95157.38
2017-10-25T00:53:44.833Z,95160.20
2017-10-25T00:56:12.648Z,95163.11
2017-10-25T00:58:40.371Z,95161.55
2017-10-25T01:01:08.177Z,95159.46
2017-10-25T01:03:35.923Z,95161.58
2017-10-25T01:06:03.608Z,95153.77
2017-10-25T01:08:31.408Z,95156.98
2017-10-25T01:10:59.111Z,95149.17
2017-10-25T01:13:27.097Z,95149.80
2017-10-25T01:15:54.844Z,95150.79
2017-10-25T01:18:22.540Z,95152.55
2017-10-25T01:20:50.397Z,95157.37
2017-10-25T01:23:18.159Z,95155.14
2017-10-25T01:25:45.970Z,95161.08
2017-10-25T01:28:13.760Z,95147.96
2017-10-25T01:30:41.556Z,95147.80
2017-10-25T01:33:09.339Z,95150.53
2017-10-25T01:35:37.053Z,95148.13
2017-10-25T01:38:05.187Z,95148.52
2017-10-25T01:40:32.969Z,95141.90
2017-10-25T01:43:00.733Z,95134.74
2017-10-25T01:45:28.514Z,95132.17
2017-10-25T01:47:56.365Z,95131.04
2017-10-25T01:50:24.253Z,95132.41
2017-10-25T01:52:52.060Z,95134.28
2017-10-25T01:55:19.847Z,95140.53
2017-10-25T01:57:47.650Z,95139.91
2017-10-25T02:00:15.402Z,95133.23
2017-10-25T02:02:43.178Z,95126.62
2017-10-25T02:05:10.881Z,95127.59
2017-10-25T02:07:38.688Z,95134.42
2017-10-25T02:10:06.449Z,95124.85
2017-10-25T02:12:34.173Z,95134.27
2017-10-25T02:15:01.899Z,95128.31
2017-10-25T02:17:29.672Z,95129.83
2017-10-25T02:19:57.374Z,95133.05
2017-10-25T02:22:25.138Z,95130.25
2017-10-25T02:24:52.937Z,95126.70
2017-10-25T02:27:21.882Z,95130.33
2017-10-25T02:29:49.554Z,95126.06
2017-10-25T02:32:17.323Z,95122.36
2017-10-25T02:34:45.071Z,95130.39
2017-10-25T02:37:12.840Z,95130.09
2017-10-25T02:39:40.575Z,95134.81
2017-10-25T02:42:08.307Z,95128.64
2017-10-25T02:44:35.979Z,95129.02
2017-10-25T02:47:03.698Z,95131.13
2017-10-25T02:49:31.369Z,95130.55
2017-10-25T02:51:59.134Z,95136.25
2017-10-25T02:54:26.912Z,95140.27
2017-10-25T02:56:55.224Z,95137.72
2017-10-25T02:59:22.920Z,95134.89
2017-10-25T03:01:50.621Z,95134.97
2017-10-25T03:04:18.360Z,95147.28
2017-10-25T03:06:46.081Z,95144.48
2017-10-25T03:09:13.833Z,95144.38
2017-10-25T03:11:42.402Z,95145.50
2017-10-25T03:14:10.158Z,95143.74
2017-10-25T03:16:37.910Z,95138.84
2017-10-25T03:19:05.581Z,95140.75
2017-10-25T03:21:33.371Z,95144.86
2017-10-25T03:24:01.163Z,95144.15
2017-10-25T03:26:28.854Z,95143.98
2017-10-25T03:28:56.526Z,95134.59
2017-10-25T03:31:24.238Z,95141.17
2017-10-25T03:33:51.972Z,95141.42
2017-10-25T03:36:19.652Z,95144.23
2017-10-25T03:38:47.461Z,95152.13
2017-10-25T03:41:15.513Z,95152.28
2017-10-25T03:43:43.310Z,95149.62
2017-10-25T03:46:11.058Z,95155.67
2017-10-25T03:48:38.771Z,95144.98
2017-10-25T03:51:06.489Z,95147.13
2017-10-25T03:53:34.186Z,95148.03
2017-10-25T03:56:01.910Z,95152.22
2017-10-25T03:58:29.603Z,95153.83
2017-10-25T04:00:57.404Z,95150.20
2017-10-25T04:03:25.094Z,95143.06
2017-10-25T04:05:52.766Z,95152.55
2017-10-25T04:08:20.504Z,95147.88
2017-10-25T04:10:48.398Z,95152.22
2017-10-25T04:13:16.078Z,95144.19
2017-10-25T04:15:43.821Z,95145.22
2017-10-25T04:18:12.310Z,95143.70
2017-10-25T04:20:40.032Z,95137.66
2017-10-25T04:23:07.717Z,95143.84
2017-10-25T04:25:36.401Z,95144.33
2017-10-25T04:28:04.106Z,95142.23
2017-10-25T04:30:31.843Z,95142.64
2017-10-25T04:32:59.526Z,95139.58
2017-10-25T04:35:27.313Z,95140.30
2017-10-25T04:37:55.011Z,95139.09
2017-10-25T04:40:22.719Z,95145.30
2017-10-25T04:42:50.530Z,95133.78
2017-10-25T04:45:24.953Z,95140.14
2017-10-25T04:47:52.679Z,95143.02
2017-10-25T04:50:21.438Z,95135.77
2017-10-25T04:52:49.399Z,95130.97
2017-10-25T04:55:17.086Z,95127.26
2017-10-25T04:57:44.837Z,95125.45
2017-10-25T05:00:12.668Z,95115.71
2017-10-25T05:02:40.365Z,95106.93
2017-10-25T05:05:08.066Z,95104.99
2017-10-25T05:07:35.851Z,95093.00
2017-10-25T05:10:03.571Z,95091.30
2017-10-25T05:12:31.268Z,95093.72
2017-10-25T05:14:59.220Z,95084.45
2017-10-25T05:17:29.195Z,95090.98
2017-10-25T05:19:56.881Z,95099.80
2017-10-25T05:22:24.627Z,95096.90
2017-10-25T05:24:52.353Z,95097.78
2017-10-25T05:27:20.062Z,95092.39
2017-10-25T05:29:47.834Z,95093.44
2017-10-25T05:32:15.519Z,95089.65
2017-10-25T05:34:43.275Z,95091.42
2017-10-25T05:37:11.034Z,95089.86
2017-10-25T05:39:38.981Z,95089.13
2017-10-25T05:42:06.703Z,95093.27
2017-10-25T05:44:34.410Z,95091.79
2017-10-25T05:47:02.195Z,95087.12
2017-10-25T05:49:30.020Z,95093.08
2017-10-25T05:51:57.722Z,95087.60
2017-10-25T05:54:25.505Z,95088.09
2017-10-25T05:56:53.295Z,95091.95
2017-10-25T05:59:21.061Z,95094.61
2017-10-25T06:01:48.844Z,95092.03
2017-10-25T06:04:16.577Z,95098.75
2017-10-25T06:06:44.256Z,95103.09
2017-10-25T06:09:11.988Z,95106.48
2017-10-25T06:11:39.778Z,95107.98
2017-10-25T06:14:07.783Z,95113.22
2017-10-25T06:16:35.896Z,95119.17
2017-10-25T06:19:03.683Z,95119.09
2017-10-25T06:21:31.498Z,95124.94
2017-10-25T06:23:59.297Z,95124.78
2017-10-25T06:26:28.068Z,95124.77
2017-10-25T06:28:56.346Z,95123.39
2017-10-25T06:31:24.048Z,95133.59
2017-10-25T06:33:51.804Z,95131.00
2017-10-25T06:36:19.638Z,95145.59
2017-10-25T06:38:47.384Z,95134.48
2017-10-25T06:41:15.879Z,95143.11
2017-10-25T06:43:43.657Z,95143.56
2017-10-25T06:46:11.707Z,95143.30
2017-10-25T06:48:39.507Z,95141.45
2017-10-25T06:51:09.080Z,95147.48
2017-10-25T06:53:36.898Z,95146.63
2017-10-25T06:56:05.096Z,95147.76
2017-10-25T06:58:32.785Z,95150.83
2017-10-25T07:01:00.497Z,95153.94
2017-10-25T07:03:28.209Z,95152.77
2017-10-25T07:05:55.967Z,95156.86
2017-10-25T07:08:23.715Z,95164.02
2017-10-25T07:10:51.465Z,95161.94
2017-10-25T07:13:20.173Z,95158.12
2017-10-25T07:15:47.890Z,95159.12
2017-10-25T07:18:15.633Z,95159.28
2017-10-25T07:20:44.268Z,95159.79
2017-10-25T07:23:11.970Z,95159.23
2017-10-25T07:25:39.705Z,95158.09
2017-10-25T07:28:07.474Z,95155.20
2017-10-25T07:30:35.219Z,95154.49
2017-10-25T07:33:02.948Z,95162.98
2017-10-25T07:35:30.697Z,95164.16
2017-10-25T07:37:58.445Z,95158.78
2017-10-25T07:40:26.210Z,95159.63
2017-10-25T07:42:54.795Z,95161.84
2017-10-25T07:45:22.564Z,95156.55
2017-10-25T07:47:50.260Z,95161.41
2017-10-25T07:50:19.144Z,95153.81
2017-10-25T07:52:46.976Z,95155.27
2017-10-25T07:55:15.660Z,95151.53
2017-10-25T07:57:44.087Z,95157.41
2017-10-25T08:00:12.059Z,95153.94
2017-10-25T08:02:40.150Z,95151.67
2017-10-25T08:05:07.857Z,95159.70
2017-10-25T08:07:36.730Z,95159.70
2017-10-25T08:10:04.490Z,95160.47
2017-10-25T08:12:32.267Z,95155.33
2017-10-25T08:14:59.992Z,95161.63
2017-10-25T08:17:27.748Z,95164.71
2017-10-25T08:19:56.043Z,95162.73
2017-10-25T08:22:23.777Z,95154.75
2017-10-25T08:24:51.555Z,95157.80
2017-10-25T08:27:19.268Z,95159.70
2017-10-25T08:29:48.067Z,95158.95
2017-10-25T08:32:16.209Z,95143.42
2017-10-25T08:34:43.938Z,95149.34
2017-10-25T08:37:11.697Z,95148.91
2017-10-25T08:39:39.482Z,95152.03
2017-10-25T08:42:07.290Z,95153.37
2017-10-25T08:44:35.698Z,95150.72
2017-10-25T08:47:04.325Z,95148.16
2017-10-25T08:49:32.152Z,95149.95
2017-10-25T08:51:59.936Z,95157.42
2017-10-25T08:54:27.680Z,95145.92
2017-10-25T08:56:55.635Z,95142.47
2017-10-25T08:59:25.201Z,95142.75
2017-10-25T09:01:52.940Z,95135.48
2017-10-25T09:04:21.881Z,95141.36
2017-10-25T09:06:49.671Z,95136.95
2017-10-25T09:09:17.517Z,95134.74
2017-10-25T09:11:46.146Z,95130.04
2017-10-25T09:14:15.708Z,95133.37
2017-10-25T09:16:43.437Z,95142.80
2017-10-25T09:19:11.152Z,95134.30
2017-10-25T09:21:38.901Z,95139.73
2017-10-25T09:24:06.622Z,95138.20
2017-10-25T09:26:34.321Z,95132.68
2017-10-25T09:29:02.075Z,95129.87
2017-10-25T09:31:29.815Z,95127.69
2017-10-25T09:33:57.623Z,95127.73
2017-10-25T09:36:25.394Z,95128.88
2017-10-25T09:38:53.100Z,95131.60
2017-10-25T09:41:20.815Z,95127.73
2017-10-25T09:43:48.583Z,95124.16
2017-10-25T09:46:27.152Z,95130.66
2017-10-25T09:48:54.900Z,95129.53
2017-10-25T09:51:22.641Z,95128.38
2017-10-25T09:53:50.365Z,95130.69
2017-10-25T09:56:18.149Z,95124.23
2017-10-25T09:58:46.654Z,95130.34
2017-10-25T10:01:15.213Z,95127.13
2017-10-25T10:03:42.957Z,95133.11
2017-10-25T10:06:12.468Z,95129.14
2017-10-25T10:08:40.248Z,95133.68
2017-10-25T10:11:10.526Z,95133.27
2017-10-25T10:13:38.270Z,95128.34
2017-10-25T10:16:06.022Z,95128.22
2017-10-25T10:18:33.723Z,95125.77
2017-10-25T10:21:02.600Z,95125.77
2017-10-25T10:23:31.219Z,95125.78
2017-10-25T10:25:59.751Z,95121.46
2017-10-25T10:28:27.505Z,95115.03
2017-10-25T10:30:55.353Z,95122.75
2017-10-25T10:33:23.089Z,95107.41
2017-10-25T10:35:50.934Z,95113.52
2017-10-25T10:38:18.703Z,95117.42
2017-10-25T10:40:47.353Z,95115.36
2017-10-25T10:43:16.067Z,95101.16
2017-10-25T10:45:46.189Z,95104.56
2017-10-25T10:48:13.955Z,95100.77
2017-10-25T10:50:42.261Z,95097.83
2017-10-25T10:53:09.976Z,95096.69
2017-10-25T10:55:37.911Z,95093.34
2017-10-25T10:58:05.742Z,95086.80
2017-10-25T11:00:33.530Z,95090.34
2017-10-25T11:03:01.343Z,95093.81
2017-10-25T11:07:57.064Z,95080.37
2017-10-25T11:10:24.924Z,95081.17
2017-10-25T11:12:52.627Z,95076.16
2017-10-25T11:15:20.413Z,95072.42
2017-10-25T11:17:48.134Z,95065.70
2017-10-25T11:20:15.889Z,95063.09
2017-10-25T11:22:43.674Z,95063.86
2017-10-25T11:25:11.482Z,95060.12
2017-10-25T11:27:39.235Z,95063.64
2017-10-25T11:30:07.003Z,95058.22
2017-10-25T11:32:34.853Z,95062.68
2017-10-25T11:35:02.643Z,95060.47
2017-10-25T11:37:30.416Z,95063.66
2017-10-25T11:39:58.135Z,95061.75
2017-10-25T11:42:25.883Z,95054.58
2017-10-25T11:44:53.691Z,95052.44
2017-10-25T11:47:21.420Z,95051.41
2017-10-25T11:49:49.348Z,95042.52
2017-10-25T11:52:17.428Z,95035.30
2017-10-25T11:54:45.184Z,95030.02
2017-10-25T11:57:12.926Z,95028.08
2017-10-25T11:59:42.005Z,95026.84
2017-10-25T12:02:09.750Z,95017.97
2017-10-25T12:04:37.558Z,95015.71
2017-10-25T12:07:05.272Z,95013.92
2017-10-25T12:09:33.017Z,95013.25
2017-10-25T12:12:00.795Z,95007.59
2017-10-25T12:14:28.562Z,94997.77
2017-10-25T12:16:57.000Z,94990.05
2017-10-25T12:19:24.742Z,94995.39
2017-10-25T12:21:52.766Z,94990.18
2017-10-25T12:24:20.515Z,94985.00
2017-10-25T12:26:48.210Z,94983.52
2017-10-25T12:29:15.997Z,94983.77
2017-10-25T12:31:43.744Z,94979.47
2017-10-25T12:34:11.483Z,94975.39
2017-10-25T12:36:39.261Z,94972.30
2017-10-25T12:39:06.998Z,94967.23
2017-10-25T12:41:34.723Z,94958.05
2017-10-25T12:44:02.476Z,94954.35
2017-10-25T12:46:30.185Z,94952.75
2017-10-25T12:48:58.950Z,94952.75
2017-10-25T12:51:26.705Z,94945.16
2017-10-25T12:53:54.453Z,94942.33
2017-10-25T12:56:22.234Z,94939.65
2017-10-25T12:58:50.005Z,94939.42
2017-10-25T13:01:18.722Z,94940.02
2017-10-25T13:03:46.413Z,94947.23
2017-10-25T13:06:14.134Z,94938.75
2017-10-25T13:08:41.901Z,94948.27
2017-10-25T13:14:57.848Z,94945.52
2017-10-25T13:17:41.823Z,94945.19
2017-10-25T13:20:09.597Z,94941.02
2017-10-25T13:22:37.316Z,94941.25
2017-10-25T13:25:05.167Z,94942.04
2017-10-25T13:27:33.400Z,94939.60
2017-10-25T13:30:01.141Z,94940.95
2017-10-25T13:32:28.861Z,94937.95
2017-10-25T13:34:56.609Z,94936.69
2017-10-25T13:37:24.385Z,94939.45
2017-10-25T13:39:52.168Z,94932.13
2017-10-25T13:42:19.931Z,94935.44
2017-10-25T13:44:47.609Z,94936.23
2017-10-25T13:47:15.356Z,94933.73
2017-10-25T13:49:43.112Z,94925.58
2017-10-25T13:52:10.843Z,94925.02
2017-10-25T13:54:38.618Z,94924.56
2017-10-25T13:57:06.397Z,94919.08
2017-10-25T13:59:34.170Z,94919.30
2017-10-25T14:02:01.940Z,94923.02
2017-10-25T14:04:29.796Z,94925.07
2017-10-25T14:06:57.602Z,94919.83
2017-10-25T14:09:25.442Z,94927.23
2017-10-25T14:11:53.312Z,94927.67
2017-10-25T14:14:21.635Z,94930.08
2017-10-25T14:16:49.440Z,94931.46
2017-10-25T14:19:17.720Z,94925.46
2017-10-25T14:21:45.692Z,94923.30
2017-10-25T14:24:13.488Z,94929.45
2017-10-25T14:26:52.819Z,94928.55
2017-10-25T14:29:20.568Z,94928.80
2017-10-25T14:31:48.441Z,94921.52
2017-10-25T14:34:16.198Z,94918.00
2017-10-25T14:36:43.946Z,94924.95
2017-10-25T14:39:11.832Z,94928.18
2017-10-25T14:41:39.636Z,94917.87
2017-10-25T14:44:07.387Z,94914.57
2017-10-25T14:46:35.252Z,94914.23
2017-10-25T14:49:03.094Z,94915.66
2017-10-25T14:51:32.108Z,94909.59
2017-10-25T14:53:59.830Z,94925.75
2017-10-25T14:56:27.618Z,94926.41
2017-10-25T14:58:55.406Z,94919.53
2017-10-25T15:01:23.134Z,94916.56
2017-10-25T15:03:50.941Z,94917.20
2017-10-25T15:06:19.697Z,94920.99
2017-10-25T15:08:47.521Z,94915.41
2017-10-25T15:11:15.367Z,94925.78
2017-10-25T15:13:43.421Z,94923.20
2017-10-25T15:16:11.476Z,94925.39
2017-10-25T15:18:39.350Z,94924.82
2017-10-25T15:21:07.112Z,94922.92
2017-10-25T15:23:34.862Z,94923.00
2017-10-25T15:26:02.745Z,94925.80
2017-10-25T15:28:30.527Z,94928.70
2017-10-25T15:30:58.674Z,94929.31
2017-10-25T15:33:26.466Z,94931.42
2017-10-25T15:35:55.054Z,94931.73
2017-10-25T15:38:22.790Z,94938.02
2017-10-25T15:40:50.499Z,94936.31
2017-10-25T15:43:18.326Z,94929.44
2017-10-25T15:45:46.120Z,94940.42
2017-10-25T15:48:14.987Z,94941.23
2017-10-25T15:50:42.778Z,94944.97
2017-10-25T15:53:11.351Z,94944.80
2017-10-25T15:55:39.160Z,94951.52
2017-10-25T15:58:08.001Z,94950.88
2017-10-25T16:00:35.773Z,94951.62
2017-10-25T16:03:03.569Z,94953.30
2017-10-25T16:05:31.317Z,94954.28
2017-10-25T16:07:59.083Z,94954.98
2017-10-25T16:10:26.936Z,94955.91
2017-10-25T16:12:54.751Z,94955.60
2017-10-25T16:15:22.507Z,94967.59
2017-10-25T16:17:50.236Z,94958.84
2017-10-25T16:20:18.080Z,94961.69
2017-10-25T16:22:46.801Z,94963.30
2017-10-25T16:25:15.128Z,94964.89
2017-10-25T16:27:43.080Z,94954.98
2017-10-25T16:30:10.898Z,94965.74
2017-10-25T16:32:38.793Z,94960.57
2017-10-25T16:35:07.767Z,94969.24
2017-10-25T16:37:35.690Z,94967.47
2017-10-25T16:40:03.494Z,94969.84
2017-10-25T16:42:31.271Z,94978.47
2017-10-25T16:44:59.028Z,94990.88
2017-10-25T16:47:26.840Z,94983.19
2017-10-25T16:49:54.587Z,94983.68
2017-10-25T16:52:22.424Z,94985.87
2017-10-25T16:54:50.193Z,94985.67
2017-10-25T16:57:18.021Z,94985.36
2017-10-25T16:59:45.795Z,94986.96
2017-10-25T17:02:13.729Z,94991.92
2017-10-25T17:04:41.541Z,94996.73
2017-10-25T17:07:09.353Z,94996.64
2017-10-25T17:09:37.143Z,94994.44
2017-10-25T17:12:05.019Z,94993.37
2017-10-25T17:14:32.804Z,94987.24
2017-10-25T17:17:00.678Z,94983.69
2017-10-25T17:19:28.485Z,94988.55
2017-10-25T17:21:57.609Z,94993.32
2017-10-25T17:24:25.403Z,95003.02
2017-10-25T17:26:53.569Z,94995.16
2017-10-25T17:29:21.418Z,94994.39
2017-10-25T17:31:51.354Z,94999.45
2017-10-25T17:34:19.206Z,95003.72
2017-10-25T17:36:47.063Z,95007.22
2017-10-25T17:39:15.740Z,95003.00
2017-10-25T17:41:43.560Z,95002.22
2017-10-25T17:44:11.408Z,95008.98
2017-10-25T17:46:39.771Z,95016.84
2017-10-25T17:49:07.828Z,95022.63
2017-10-25T17:51:35.651Z,95019.19
2017-10-25T17:54:03.425Z,95025.59
2017-10-25T17:56:31.223Z,95021.23
2017-10-25T17:58:59.051Z,95018.92
2017-10-25T18:01:26.987Z,95017.23
2017-10-25T18:03:55.914Z,95029.03
2017-10-25T18:06:23.726Z,95035.69
2017-10-25T18:08:51.696Z,95044.64
2017-10-25T18:11:19.719Z,95044.03
2017-10-25T18:13:47.528Z,95050.92
2017-10-25T18:16:16.443Z,95052.44
2017-10-25T18:18:44.280Z,95059.23
2017-10-25T18:21:12.439Z,95058.52
2017-10-25T18:23:41.297Z,95055.40
2017-10-25T18:26:09.120Z,95050.34
2017-10-25T18:28:37.046Z,95050.21
2017-10-25T18:31:06.204Z,95065.69
2017-10-25T18:33:37.674Z,95077.48
2017-10-25T18:36:05.454Z,95064.33
2017-10-25T18:38:36.974Z,95055.53
2017-10-25T18:41:04.814Z,95062.53
2017-10-25T18:43:34.870Z,95064.20
2017-10-25T18:46:03.242Z,95056.55
2017-10-25T18:48:32.509Z,95067.67
2017-10-25T18:51:00.321Z,95058.73
2017-10-25T18:53:31.074Z,95058.52
2017-10-25T18:55:58.975Z,95065.53
2017-10-25T18:58:27.650Z,95058.65
2017-10-25T19:00:57.078Z,95058.82
2017-10-25T19:03:25.567Z,95063.30
2017-10-25T19:05:54.388Z,95056.32
2017-10-25T19:08:22.211Z,95052.09
2017-10-25T19:10:52.265Z,95057.23
2017-10-25T19:13:21.078Z,95060.41
2017-10-25T19:15:48.901Z,95055.94
2017-10-25T19:18:17.989Z,95059.44
2017-10-25T19:20:45.960Z,95044.95
2017-10-25T19:23:15.169Z,95051.39
2017-10-25T19:25:43.520Z,95053.89
2017-10-25T19:28:12.441Z,95057.06
2017-10-25T19:30:41.238Z,95052.43
2017-10-25T19:33:08.971Z,95048.33
2017-10-25T19:35:36.844Z,95048.55
2017-10-25T19:38:08.738Z,95056.83
2017-10-25T19:40:41.778Z,95061.47
2017-10-25T19:43:10.684Z,95058.58
2017-10-25T19:45:39.847Z,95059.09
2017-10-25T19:48:09.480Z,95061.58
2017-10-25T19:50:41.978Z,95067.41
2017-10-25T19:53:10.840Z,95059.75
2017-10-25T19:55:38.690Z,95064.38
2017-10-25T19:58:08.349Z,95069.16
2017-10-25T20:00:40.017Z,95059.44
2017-10-25T20:03:12.799Z,95061.40
2017-10-25T20:05:40.661Z,95065.69
2017-10-25T20:08:09.269Z,95067.28
2017-10-25T20:10:38.644Z,95067.60
2017-10-25T20:13:08.215Z,95064.83
2017-10-25T20:15:36.678Z,95063.44
2017-10-25T20:18:05.605Z,95068.22
2017-10-25T20:20:33.357Z,95067.28
2017-10-25T20:23:03.187Z,95065.23
2017-10-25T20:25:36.258Z,95070.02
2017-10-25T20:28:04.971Z,95069.86
2017-10-25T20:30:32.724Z,95069.16
2017-10-25T20:33:01.419Z,95075.98
2017-10-25T20:35:30.798Z,95078.38
2017-10-25T20:37:58.693Z,95088.59
2017-10-25T20:40:27.039Z,95088.58
2017-10-25T20:42:54.787Z,95096.53
2017-10-25T20:45:24.481Z,95101.38
2017-10-25T20:47:53.019Z,95096.75
2017-10-25T20:50:21.615Z,95100.06
2017-10-25T20:52:49.968Z,95102.74
2017-10-25T20:55:18.741Z,95099.23
2017-10-25T20:57:47.568Z,95096.34
2017-10-25T21:00:16.947Z,95103.11
2017-10-25T21:02:48.379Z,95103.80
2017-10-25T21:05:16.954Z,95108.63
2017-10-25T21:07:50.254Z,95101.31
2017-10-25T21:10:18.093Z,95104.93
2017-10-25T21:12:45.863Z,95102.81
2017-10-25T21:15:14.077Z,95104.93
2017-10-25T21:17:41.870Z,95094.80
2017-10-25T21:20:09.914Z,95099.34
2017-10-25T21:22:38.132Z,95099.97
2017-10-25T21:25:05.959Z,95096.37
2017-10-25T21:27:33.677Z,95106.23
2017-10-25T21:30:01.506Z,95106.74
2017-10-25T21:32:29.286Z,95103.62
2017-10-25T21:34:57.026Z,95105.58
2017-10-25T21:37:24.840Z,95115.23
2017-10-25T21:39:52.585Z,95120.06
2017-10-25T21:42:20.353Z,95111.15
2017-10-25T21:44:48.136Z,95114.43
2017-10-25T21:47:17.098Z,95109.53
2017-10-25T21:49:44.808Z,95114.23
2017-10-25T21:52:12.517Z,95113.23
2017-10-25T21:54:40.293Z,95115.96
2017-10-25T21:57:07.992Z,95112.37
2017-10-25T21:59:35.780Z,95119.00
2017-10-25T22:02:03.567Z,95114.73
2017-10-25T22:04:31.373Z,95111.28
2017-10-25T22:06:59.113Z,95112.63
2017-10-25T22:09:26.922Z,95114.98
2017-10-25T22:11:55.548Z,95122.42
2017-10-25T22:14:23.251Z,95114.81
2017-10-25T22:16:50.953Z,95122.14
2017-10-25T22:19:18.679Z,95127.82
2017-10-25T22:21:46.436Z,95136.61
2017-10-25T22:24:14.198Z,95137.01
2017-10-25T22:26:41.900Z,95129.69
2017-10-25T22:29:09.608Z,95130.30
2017-10-25T22:31:37.391Z,95139.77
2017-10-25T22:34:05.177Z,95136.45
2017-10-25T22:36:33.305Z,95140.70
2017-10-25T22:39:01.878Z,95144.39
2017-10-25T22:41:29.955Z,95140.50
2017-10-25T22:43:57.731Z,95150.91
2017-10-25T22:46:25.479Z,95150.67
2017-10-25T22:48:53.371Z,95146.98
2017-10-25T22:51:21.480Z,95145.78
2017-10-25T22:53:50.128Z,95146.02
2017-10-25T22:56:18.002Z,95154.27
2017-10-25T22:58:45.696Z,95153.00
2017-10-25T23:01:13.389Z,95155.59
2017-10-25T23:03:42.132Z,95151.92
2017-10-25T23:06:10.071Z,95147.39
2017-10-25T23:08:37.762Z,95148.36
2017-10-25T23:11:05.491Z,95155.98
2017-10-25T23:13:33.241Z,95149.07
2017-10-25T23:16:01.061Z,95152.76
2017-10-25T23:18:28.819Z,95153.77
2017-10-25T23:20:56.626Z,95157.54
2017-10-25T23:23:24.339Z,95158.54
2017-10-25T23:25:52.172Z,95163.91
2017-10-25T23:28:20.248Z,95164.55
2017-10-25T23:30:47.952Z,95173.34
2017-10-25T23:33:15.687Z,95170.14
2017-10-25T23:35:44.551Z,95167.64
2017-10-25T23:38:12.264Z,95165.44
2017-10-25T23:40:40.028Z,95169.50
2017-10-25T23:43:07.807Z,95172.08
2017-10-25T23:45:35.571Z,95169.08
2017-10-25T23:48:03.302Z,95172.72
2017-10-25T23:50:31.044Z,95168.13
2017-10-25T23:52:58.751Z,95170.54
2017-10-25T23:55:26.533Z,95179.28
2017-10-25T23:57:54.195Z,95170.77
